METAR Data
IDs: Format: Raw Decoded Include TAF

Data at: 0214 UTC 23 Apr 2021

KCTY 230155Z AUTO 00000KT 10SM CLR 14/08 A3013 RMK AO2 T01400082
KCTY 230135Z AUTO 00000KT 10SM CLR 15/08 A3012 RMK AO2 T01470082
KCTY 230115Z AUTO 35003KT 10SM CLR 15/08 A3012 RMK AO2 T01470084
KCTY 230055Z AUTO 36003KT 10SM CLR 15/08 A3011 RMK AO2 P0001 T01530085
KCTY 230035Z AUTO 36004KT 10SM CLR 16/08 A3010 RMK AO2 P0001 T01620077
KCTY 230015Z AUTO 35004KT 10SM CLR 18/07 A3010 RMK AO2 P0001 T01780073
KCTY 222355Z AUTO 36004KT 10SM CLR 20/06 A3010 RMK AO2 T01980060 10234 20196 402340106 60003
KCTY 222335Z AUTO 36004KT 10SM CLR 21/04 A3010 RMK AO2 T02110043
KCTY 222315Z AUTO 36005KT 10SM CLR 22/03 A3010 RMK AO2 T02180029
KCTY 222255Z AUTO 01006KT 10SM CLR 22/02 A3010 RMK AO2 P0001 T02220025
KCTY 222235Z AUTO 34005KT 10SM CLR 22/03 A3010 RMK AO2 P0001 T02230027
KCTY 222215Z AUTO 33003KT 10SM CLR 22/03 A3010 RMK AO2 T02250027
KCTY 222155Z AUTO 32005KT 10SM CLR 22/02 A3010 RMK AO2 T02240024
KCTY 222135Z AUTO 03003KT 10SM CLR 23/04 A3010 RMK AO2 T02290041
KCTY 222115Z AUTO 25003KT 10SM CLR 23/03 A3010 RMK AO2 T02260032
KCTY 222055Z AUTO 05005KT 10SM CLR 22/03 A3011 RMK AO2 P0001 60002
KCTY 222035Z AUTO 01007KT 10SM CLR 23/03 A3011 RMK AO2 P0001 T02290028
KCTY 222015Z AUTO 36005KT 10SM CLR 22/03 A3011 RMK AO2 T02210026
KCTY 221955Z AUTO 36006KT 10SM CLR 22/03 A3012 RMK AO2 P0001 T02220026
KCTY 221935Z AUTO 05007KT 010V070 10SM CLR 22/03 A3012 RMK AO2 P0001 T02170025
KCTY 221915Z AUTO 05007KT 030V170 10SM CLR 21/04 A3013 RMK AO2 P0001 T02120035
KCTY 221855Z AUTO 02008KT 010V210 10SM CLR 21/02 A3014 RMK AO2 T02090023
KCTY 221835Z AUTO 02009KT 360V060 10SM CLR 21/03 A3014 RMK AO2 T02080031
KCTY 221815Z AUTO 03006KT 10SM CLR 21/03 A3015 RMK AO2 T02080033
KCTY 221755Z AUTO 02011KT 10SM CLR 20/03 A3016 RMK AO2 T02010029 10206 20109 60002
KCTY 221735Z AUTO 01008KT 10SM CLR 19/02 A3016 RMK AO2 T01940023
KCTY 221715Z AUTO 03009KT 10SM CLR 20/02 A3017 RMK AO2 T01980024
KCTY 221655Z AUTO 05008KT 360V090 10SM CLR 19/02 A3017 RMK AO2 P0001 T01910020
KCTY 221635Z AUTO 04007KT 010V090 10SM CLR 18/02 A3018 RMK AO2 T01840022
KCTY 221615Z AUTO 03010KT 10SM CLR 18/01 A3018 RMK AO2 T01800013
KCTY 221555Z AUTO 05006KT 10SM CLR 17/00 A3018 RMK AO2 T01680004
KCTY 221535Z AUTO 08007KT 020V110 10SM CLR 17/01 A3018 RMK AO2 T01690011
KCTY 221515Z AUTO 03010KT 10SM CLR 16/01 A3019 RMK AO2
KCTY 221455Z AUTO 02010KT 10SM CLR 15/01 A3019 RMK AO2 P0001 T01510007 60001
KCTY 221435Z AUTO 05008KT 010V070 10SM CLR 15/01 A3019 RMK AO2 P0001 T01480006
KCTY 221415Z AUTO 04007KT 360V120 10SM CLR 14/00 A3019 RMK AO2 T01410005
KCTY 221355Z AUTO 04012G16KT 10SM CLR 13/00 A3019 RMK AO2 T01350001
KCTY 221335Z AUTO 04010G16KT 10SM CLR 12/00 A3018 RMK AO2 T01241002
KCTY 221315Z AUTO 03015KT 10SM 12/00 A3018 RMK AO2 T01231005
KCTY 221255Z AUTO 05012KT 10SM CLR 12/00 A3018 RMK AO2 T01161003
KCTY 221235Z AUTO 04010G15KT 10SM CLR 11/00 A3018 RMK AO2 T01121002
KCTY 221215Z AUTO 03012G16KT 10SM CLR 11/00 A3018 RMK AO2 T01121004
KCTY 221155Z AUTO 04009KT 10SM CLR 11/00 A3017 RMK AO2 T01091003 10165 20106 60002 70014
KCTY 221135Z AUTO 04008KT 10SM 11/00 A3016 RMK AO2 T01061003
KCTY 221115Z AUTO 03009KT 10SM CLR 11/M01 A3015 RMK AO2 T01081006
KCTY 221055Z AUTO 02015G18KT 10SM CLR 11/00 A3014 RMK AO2 T01111005
KCTY 221035Z AUTO 02011KT 10SM 11/01 A3013 RMK AO2 T01130006
KCTY 221015Z AUTO 02011KT 10SM CLR 12/01 A3012 RMK AO2
KCTY 220955Z AUTO 02011G16KT 10SM CLR 12/01 A3010 RMK AO2 P0001 T01190011
KCTY 220935Z AUTO 02009KT 10SM CLR 12/01 A3010 RMK AO2 T01210015
KCTY 220915Z AUTO 01010KT 10SM CLR 12/01 A3010 RMK AO2 T01240014
KCTY 220855Z AUTO 02011KT 10SM CLR 13/01 A3010 RMK AO2 T01280014 60001
KCTY 220835Z AUTO 01012KT 10SM 13/02 A3009 RMK AO2 T01310019
KCTY 220815Z AUTO 01008KT 10SM 14/02 A3009 RMK AO2 T01360022
KCTY 220755Z AUTO 36010KT 10SM 14/03 A3008 RMK AO2 P0001 T01390026
KCTY 220735Z AUTO 01010KT 10SM CLR 14/03 A3007 RMK AO2 P0001 T01420033
KCTY 220710Z AUTO 36009KT 10SM CLR 15/03 A3007 RMK AO2 T01470035
KCTY 220655Z AUTO 36010G16KT 10SM CLR 15/03 A3006 RMK AO2 T01530034
KCTY 220635Z AUTO 35010G15KT 10SM CLR 16/04 A3006 RMK AO2 T01560039
KCTY 220615Z AUTO 35008KT 10SM CLR 16/04 A3007 RMK AO2 T01590044
KCTY 220555Z AUTO 35012G17KT 10SM 17/05 A3007 RMK AO2 T01650050 10223 20165 60006
KCTY 220535Z AUTO 35010KT 10SM CLR 17/07 A3007 RMK AO2 T01670074
KCTY 220515Z AUTO 35007KT 10SM CLR 17/08 A3007 RMK AO2 T01710082
KCTY 220455Z AUTO 35008KT 10SM CLR 18/09 A3006 RMK AO2 P0001 T01770088
KCTY 220435Z AUTO 35009KT 10SM CLR 18/11 A3006 RMK AO2 T01780106
KCTY 220415Z AUTO 34006KT 10SM CLR 18/11 A3006 RMK AO2 T01830112
KCTY 220355Z AUTO 33007KT 10SM CLR 19/12 A3005 RMK AO2 P0001 T01880117
KCTY 220335Z AUTO 33007KT 10SM CLR 19/13 A3005 RMK AO2 P0001 T01910129
KCTY 220315Z AUTO 33005KT 10SM CLR 19/15 A3005 RMK AO2 T01910147
KCTY 220255Z AUTO 32005KT 10SM CLR 19/17 A3004 RMK AO2 P0001 T01880165 60004
KCTY 220235Z AUTO 30004KT 10SM CLR 19/17 A3004 RMK AO2 P0001 T01870169
KCTY 220215Z AUTO 28003KT 10SM CLR 19/17 A3003 RMK AO2 T01910170
KCTY 220155Z AUTO 27004KT 10SM CLR 20/17 A3002 RMK AO2 P0001 T01970173
KCTY 220135Z AUTO 25005KT 10SM CLR 20/17 A3001 RMK AO2 P0001 T02000172
KCTY 220115Z AUTO 25005KT 10SM CLR 20/17 A3001 RMK AO2 T02030171
KCTY 220055Z AUTO 25006KT 10SM CLR 21/17 A3000 RMK AO2 P0001 T02070170
KCTY 220035Z AUTO 25006KT 10SM CLR 21/17 A2999 RMK AO2 T02100168
KCTY 220015Z AUTO 24007KT 10SM CLR 22/16 A2999 RMK AO2 T02160164
KCTY 212355Z AUTO 25006KT 10SM CLR 22/16 A2998 RMK AO2 T02250160 10291 20224 402910142 60005
KCTY 212335Z AUTO 24008KT 10SM CLR 23/15 A2998 RMK AO2 T02330154
KCTY 212315Z AUTO 24011KT 10SM CLR 24/15 A2997 RMK AO2 T02380148
KCTY 212255Z AUTO 24010KT 10SM CLR 25/14 A2997 RMK AO2 P0001 T02450140
KCTY 212235Z AUTO 24010KT 10SM CLR 25/13 A2997 RMK AO2 P0001 T02520130
KCTY 212215Z AUTO 28011KT 10SM CLR 26/12 A2997 RMK AO2 P0001 T02580118
KCTY 212155Z AUTO 25012KT 10SM CLR 26/11 A2997 RMK AO2 P0001
KCTY 212135Z AUTO 26011G18KT 10SM CLR 27/12 A2996 RMK AO2 P0001 T02710120
KCTY 212115Z AUTO 27013KT 10SM CLR 27/12 A2996 RMK AO2 P0001 T02720121
KCTY 212055Z AUTO 25012G17KT 10SM CLR 28/12 A2996 RMK AO2 P0001 T02750119 60002
KCTY 212035Z AUTO 26013KT 10SM CLR 28/12 A2996 RMK AO2 P0001 T02800119
KCTY 212015Z AUTO 28012KT 10SM CLR 28/10 A2995 RMK AO2 T02850103
KCTY 211955Z AUTO 27012KT 10SM CLR 29/12 A2996 RMK AO2 P0001 T02870118
KCTY 211935Z AUTO 27011G16KT 10SM CLR 28/09 A2996 RMK AO2 P0001 T02850093
KCTY 211915Z AUTO 28012G17KT 10SM CLR 28/08 A2997 RMK AO2 T02850084
KCTY 211855Z AUTO 30012KT 10SM CLR 29/09 A2998 RMK AO2 T02860089
KCTY 211835Z AUTO 26012KT 10SM CLR 29/09 A2998 RMK AO2 T02860094
KCTY 211815Z AUTO 24008G15KT 210V310 10SM CLR 28/12 A2998 RMK AO2 T02830122
KCTY 211755Z AUTO 25006G14KT 10SM CLR 27/11 A2999 RMK AO2 10282 20156 60001
KCTY 211735Z AUTO 29011KT 270V350 10SM CLR 27/11 A3000 RMK AO2
KCTY 211715Z AUTO 33012KT 10SM CLR 27/11 A3000 RMK AO2 T02690109
KCTY 211655Z AUTO 31008KT CLR 26/11 A3001 RMK AO2 T02650111
KCTY 211635Z AUTO 31008KT 10SM CLR 26/11 A3002 RMK AO2 T02620108
KCTY 211615Z AUTO 35007KT 310V030 10SM CLR 26/11 A3002 RMK AO2 T02570113
KCTY 211555Z AUTO 33008KT 10SM CLR 25/11 A3002 RMK AO2 T02520109
KCTY 211535Z AUTO 31011G16KT 10SM CLR 25/11 A3003 RMK AO2 T02540115
KCTY 211515Z AUTO 34009KT 10SM CLR 25/12 A3003 RMK AO2 T02460119
KCTY 211455Z AUTO 32006KT 10SM CLR 24/12 A3002 RMK AO2 T02380124 60001
KCTY 211435Z AUTO 30007KT 10SM CLR 23/12 A3002 RMK AO2 T02340121
KCTY 211415Z AUTO 31006KT 10SM CLR 22/13 A3002 RMK AO2 T02240130